Погода Ирасемаполисна 2 недели

Сан-Паулу, Бразилия

16 - 29 июля
  • 16июля
    Сегодня
    +11°
    +25°
    Практически безоблачно
    ВремяПогодаТемператураВлажностьДавлениеВетер, м/сВероятность осадков
    00:00Практически безоблачно+15°C95 %716 мм1.9 м/с5 %
    03:00Ясно и безоблачно+14°C98 %715 мм1.7 м/с5 %
    06:00Практически безоблачно+12°C99 %715 мм1.9 м/с5 %
    09:00Практически безоблачно+15°C86 %716 мм1.1 м/с5 %
    12:00Практически безоблачно+21°C68 %716 мм0.7 м/с5 %
    15:00Практически безоблачно+24°C51 %715 мм1.1 м/с4 %
    18:00Ясно и безоблачно+20°C69 %715 мм2.2 м/с5 %
    21:00Ясно и безоблачно+18°C73 %716 мм3.5 м/с5 %
  • 17июля
    Среда
    +13°
    +26°
    Ясно и безоблачно
    ВремяПогодаТемператураВлажностьДавлениеВетер, м/сВероятность осадков
    00:00Ясно и безоблачно+16°C95 %716 мм2.4 м/с5 %
    03:00Практически безоблачно+14°C98 %715 мм1.9 м/с5 %
    06:00Облачно с прояснениями+12°C100 %715 мм2.1 м/с5 %
    09:00Небольшая облачность+15°C86 %717 мм1.5 м/с5 %
    12:00Ясно и безоблачно+22°C66 %716 мм1.0 м/с5 %
    15:00Ясно и безоблачно+25°C53 %715 мм1.1 м/с5 %
    18:00Ясно и безоблачно+22°C73 %714 мм2.2 м/с5 %
    21:00Ясно и безоблачно+19°C77 %714 мм1.7 м/с5 %
  • 18июля
    Четверг
    +13°
    +26°
    Ясно и безоблачно
    ВремяПогодаТемператураВлажностьДавлениеВетер, м/сВероятность осадков
    00:00Ясно и безоблачно+17°C89 %714 мм2.4 м/с5 %
    03:00Ясно и безоблачно+15°C91 %713 мм2.0 м/с5 %
    06:00Ясно и безоблачно+15°C90 %713 мм1.4 м/с5 %
    09:00Ясно и безоблачно+18°C79 %715 мм0.5 м/с5 %
    12:00Ясно и безоблачно+24°C51 %715 мм1.4 м/с5 %
    15:00Ясно и безоблачно+26°C42 %714 мм1.0 м/с5 %
    18:00Ясно и безоблачно+22°C61 %714 мм2.5 м/с5 %
    21:00Ясно и безоблачно+18°C66 %714 мм2.5 м/с5 %
  • 19июля
    Пятница
    +11°
    +26°
    Ясно и безоблачно
    ВремяПогодаТемператураВлажностьДавлениеВетер, м/сВероятность осадков
    00:00Практически безоблачно+16°C96 %715 мм2.9 м/с5 %
    03:00Пасмурно, сплошная облачность+15°C98 %714 мм2.9 м/с5 %
    06:00Пасмурно, сплошная облачность+14°C95 %715 мм2.1 м/с5 %
    09:00Облачно с прояснениями+15°C85 %716 мм1.9 м/с5 %
    12:00Ясно и безоблачно+22°C65 %717 мм1.6 м/с5 %
    15:00Ясно и безоблачно+25°C52 %715 мм1.6 м/с5 %
    18:00Ясно и безоблачно+21°C73 %715 мм2.4 м/с5 %
    21:00Ясно и безоблачно+18°C73 %715 мм2.3 м/с5 %
  • 20июля
    Суббота
    +11°
    +26°
    Ясно и безоблачно
    ВремяПогодаТемператураВлажностьДавлениеВетер, м/сВероятность осадков
    00:00Ясно и безоблачно+16°C86 %715 мм2.1 м/с5 %
    03:00Ясно и безоблачно+13°C97 %714 мм2.1 м/с5 %
    06:00Облачно с прояснениями+12°C100 %714 мм1.8 м/с5 %
    09:00Облачно с прояснениями+14°C92 %716 мм0.7 м/с5 %
    12:00Ясно и безоблачно+22°C64 %716 мм1.8 м/с5 %
    15:00Ясно и безоблачно+25°C49 %714 мм2.0 м/с5 %
    18:00Ясно и безоблачно+21°C68 %714 мм2.6 м/с5 %
    21:00Ясно и безоблачно+17°C73 %714 мм2.6 м/с5 %
Мы используем cookies
Соглашаюсь